Time;durP1;ratioP1;P1;durP2;ratioP2;P2;SDS_P1;SDS_P2;PMS_P1;PMS_P2;Temp;Humidity;BMP_temperature;BMP_pressure;BME280_temperature;BME280_humidity;BME280_pressure;Samples;Min_cycle;Max_cycle;Signal;HPM_P1;HPM_P2
2024/01/10 00:02:09;;;;;;;70.75;30.85;;;64.10;2201.60;;;;;;5009635;28;20161;-63
2024/01/10 00:04:34;;;;;;;80.57;34.00;;;64.10;2201.60;;;;;;5028966;28;20029;-62
2024/01/10 00:07:00;;;;;;;72.43;32.10;;;64.10;2201.60;;;;;;5028953;28;20048;-64
2024/01/10 00:09:26;;;;;;;79.15;34.25;;;64.10;2201.60;;;;;;5027965;28;20030;-62
2024/01/10 00:11:54;;;;;;;77.82;34.03;;;64.10;2201.60;;;;;;5029216;28;20460;-67
2024/01/10 00:14:20;;;;;;;80.65;34.38;;;64.10;2201.60;;;;;;5029227;28;20021;-65
2024/01/10 00:16:45;;;;;;;81.10;34.55;;;64.10;2201.60;;;;;;5025320;28;20025;-61
2024/01/10 00:19:11;;;;;;;77.55;32.67;;;64.10;2201.60;;;;;;5024913;28;20033;-64
2024/01/10 00:21:40;;;;;;;79.35;33.38;;;64.10;2201.60;;;;;;5021973;28;20029;-66
2024/01/10 00:24:05;;;;;;;87.38;36.50;;;64.10;2201.60;;;;;;5027832;28;20038;-67
2024/01/10 00:26:32;;;;;;;75.85;32.75;;;64.10;2201.60;;;;;;5026398;28;20032;-61
2024/01/10 00:28:57;;;;;;;80.53;34.10;;;64.10;2201.60;;;;;;5027555;28;20381;-66
2024/01/10 00:31:23;;;;;;;82.00;34.88;;;64.10;2201.60;;;;;;5025001;28;20025;-63
2024/01/10 00:33:49;;;;;;;76.22;33.00;;;64.20;2201.60;;;;;;5026863;28;20492;-65
2024/01/10 00:36:15;;;;;;;79.22;33.08;;;64.20;2201.60;;;;;;5028401;28;20046;-66
2024/01/10 00:38:41;;;;;;;79.15;32.80;;;64.40;2201.60;;;;;;5028157;28;20038;-65
2024/01/10 00:41:07;;;;;;;76.20;32.55;;;64.40;2201.60;;;;;;5023945;28;20455;-63
2024/01/10 00:43:33;;;;;;;80.43;32.70;;;64.40;2201.60;;;;;;5025402;28;20029;-68
2024/01/10 00:46:02;;;;;;;79.70;33.53;;;64.30;2201.60;;;;;;5026867;28;20049;-62
2024/01/10 00:48:29;;;;;;;80.65;33.63;;;64.30;2201.60;;;;;;5026628;28;20030;-63
2024/01/10 00:50:54;;;;;;;82.45;35.08;;;64.40;2201.60;;;;;;5029402;28;20347;-69
2024/01/10 00:53:20;;;;;;;82.50;35.53;;;64.40;2201.60;;;;;;5032851;28;20037;-68
2024/01/10 00:55:46;;;;;;;81.88;34.90;;;64.40;2201.60;;;;;;5031930;28;20112;-64
2024/01/10 00:58:12;;;;;;;85.07;35.17;;;64.40;2201.60;;;;;;5030348;28;20494;-64
2024/01/10 01:00:37;;;;;;;89.88;36.03;;;64.40;2201.60;;;;;;5032872;28;20512;-62
2024/01/10 01:03:03;;;;;;;84.03;35.28;;;64.40;2201.60;;;;;;5032866;28;20053;-62
2024/01/10 01:05:29;;;;;;;82.75;36.05;;;64.40;2201.60;;;;;;5026623;28;20522;-70
2024/01/10 01:07:55;;;;;;;86.13;35.55;;;64.40;2201.60;;;;;;5027919;28;20022;-70
2024/01/10 01:10:20;;;;;;;92.70;38.08;;;64.00;2201.60;;;;;;5031426;28;20026;-63
2024/01/10 01:12:46;;;;;;;86.30;37.08;;;64.40;2201.60;;;;;;5028881;28;20099;-72
2024/01/10 01:15:12;;;;;;;88.80;36.72;;;64.50;2201.60;;;;;;5029194;28;20029;-67
2024/01/10 01:17:38;;;;;;;86.93;37.28;;;64.50;2201.60;;;;;;5028882;28;20052;-62
2024/01/10 01:20:05;;;;;;;85.32;35.63;;;64.50;2201.60;;;;;;5032653;28;20399;-66
2024/01/10 01:22:31;;;;;;;85.05;35.22;;;64.60;2201.60;;;;;;5028911;28;20044;-62
2024/01/10 01:24:57;;;;;;;85.63;35.95;;;64.60;2201.60;;;;;;5028725;28;20646;-64
2024/01/10 01:27:23;;;;;;;91.35;35.83;;;64.60;2201.60;;;;;;5025898;28;20025;-67
2024/01/10 01:29:49;;;;;;;88.50;36.42;;;64.60;2201.60;;;;;;5033762;28;20014;-65
2024/01/10 01:32:15;;;;;;;85.72;35.95;;;64.60;2201.60;;;;;;5035781;28;20076;-64
2024/01/10 01:34:40;;;;;;;85.75;36.45;;;64.60;2201.60;;;;;;5036076;28;20032;-64
2024/01/10 01:37:06;;;;;;;81.32;35.83;;;64.60;2201.60;;;;;;5033923;28;20087;-73
2024/01/10 01:39:32;;;;;;;88.03;36.17;;;64.60;2201.60;;;;;;5031962;28;20025;-68
2024/01/10 01:41:58;;;;;;;84.22;35.88;;;64.60;2201.60;;;;;;5029718;28;20088;-71
2024/01/10 01:44:27;;;;;;;86.40;35.85;;;64.60;2201.60;;;;;;5033120;28;20472;-69
2024/01/10 01:46:52;;;;;;;87.82;37.20;;;64.50;2201.60;;;;;;5032458;28;20048;-66
2024/01/10 01:49:18;;;;;;;87.68;36.67;;;64.60;2201.60;;;;;;5030523;28;20104;-65
2024/01/10 01:51:44;;;;;;;82.65;34.95;;;64.60;2201.60;;;;;;5032519;28;20025;-74
2024/01/10 01:54:17;;;;;;;85.03;35.38;;;64.60;2201.60;;;;;;5033906;28;20117;-68
2024/01/10 01:56:44;;;;;;;88.28;37.70;;;64.60;2201.60;;;;;;5031278;28;20041;-62
2024/01/10 01:59:11;;;;;;;83.53;34.47;;;64.70;2201.60;;;;;;5032901;28;20021;-74
2024/01/10 02:01:39;;;;;;;87.45;35.45;;;64.70;2201.60;;;;;;5037858;28;20364;-67
2024/01/10 02:04:06;;;;;;;87.88;36.03;;;64.60;2201.60;;;;;;5037723;28;20074;-64
2024/01/10 02:06:33;;;;;;;78.80;34.30;;;64.60;2201.60;;;;;;5027285;28;20022;-61
2024/01/10 02:08:59;;;;;;;88.57;35.42;;;64.50;2201.60;;;;;;5030793;28;20032;-72
2024/01/10 02:11:26;;;;;;;89.95;36.03;;;64.50;2201.60;;;;;;5033865;28;20029;-71
2024/01/10 02:13:55;;;;;;;86.30;34.83;;;64.40;2201.60;;;;;;5033479;28;20033;-61
2024/01/10 02:16:24;;;;;;;81.85;34.70;;;64.40;2201.60;;;;;;5035419;28;20041;-65
2024/01/10 02:18:50;;;;;;;78.63;34.33;;;64.30;2201.60;;;;;;5011467;28;20041;-70
2024/01/10 02:21:20;;;;;;;81.18;34.65;;;64.30;2201.60;;;;;;5033066;28;20083;-72
2024/01/10 02:23:45;;;;;;;77.78;33.05;;;64.30;2201.60;;;;;;5038413;28;20102;-71
2024/01/10 02:26:11;;;;;;;76.18;31.58;;;64.30;2201.60;;;;;;5053170;28;20040;-65
2024/01/10 02:28:40;;;;;;;73.95;32.55;;;64.30;2201.60;;;;;;5051441;28;20029;-71
2024/01/10 02:31:07;;;;;;;80.00;33.45;;;64.30;2201.60;;;;;;5033275;28;20471;-61
2024/01/10 02:33:33;;;;;;;74.40;32.55;;;64.30;2201.60;;;;;;5031520;28;20029;-66
2024/01/10 02:35:58;;;;;;;74.68;31.95;;;64.30;2201.60;;;;;;5031839;28;20032;-64
2024/01/10 02:38:24;;;;;;;81.00;34.15;;;64.30;2201.60;;;;;;5032213;28;20484;-63
2024/01/10 02:40:50;;;;;;;98.05;40.90;;;64.30;2201.60;;;;;;5015048;28;20038;-63
2024/01/10 02:43:16;;;;;;;132.73;45.78;;;64.30;2201.60;;;;;;5029298;28;20325;-64
2024/01/10 02:45:42;;;;;;;113.47;43.78;;;64.20;2201.60;;;;;;5032925;28;20063;-63
2024/01/10 02:48:08;;;;;;;122.22;46.90;;;64.20;2201.60;;;;;;5031736;28;20029;-65
2024/01/10 02:50:34;;;;;;;88.47;35.92;;;64.30;2201.60;;;;;;5028790;28;20025;-64
2024/01/10 02:53:00;;;;;;;118.03;44.33;;;64.30;2201.60;;;;;;5012725;28;20034;-70
2024/01/10 02:55:28;;;;;;;96.68;39.63;;;64.30;2201.60;;;;;;5019567;28;20380;-65
2024/01/10 02:57:57;;;;;;;89.63;36.15;;;64.30;2201.60;;;;;;5034974;28;20460;-70
2024/01/10 03:00:23;;;;;;;82.15;35.05;;;64.40;2201.60;;;;;;5029258;28;20045;-67
2024/01/10 03:02:51;;;;;;;83.07;35.20;;;64.40;2201.60;;;;;;5030930;28;20392;-65
2024/01/10 03:05:17;;;;;;;86.05;34.08;;;64.40;2201.60;;;;;;5015593;28;20064;-64
2024/01/10 03:07:43;;;;;;;79.75;34.70;;;64.50;2201.60;;;;;;5027247;28;20060;-66
2024/01/10 03:10:09;;;;;;;85.97;34.50;;;64.50;2201.60;;;;;;5028666;28;20048;-70
2024/01/10 03:12:36;;;;;;;85.68;34.70;;;64.50;2201.60;;;;;;5028696;28;20472;-64
2024/01/10 03:15:03;;;;;;;85.75;36.40;;;64.50;2201.60;;;;;;5031011;28;20475;-70
2024/01/10 03:17:29;;;;;;;85.55;35.22;;;64.50;2201.60;;;;;;5030706;28;20421;-67
2024/01/10 03:19:57;;;;;;;84.53;36.70;;;64.40;2201.60;;;;;;5030437;28;20068;-69
2024/01/10 03:22:22;;;;;;;89.35;36.08;;;64.50;2201.60;;;;;;5029719;28;20037;-63
2024/01/10 03:24:48;;;;;;;90.10;36.67;;;64.60;2201.60;;;;;;5030212;28;20064;-70
2024/01/10 03:27:14;;;;;;;93.22;38.15;;;64.60;2201.60;;;;;;5028816;28;20026;-64
2024/01/10 03:29:39;;;;;;;90.70;37.70;;;64.60;2201.60;;;;;;5028568;28;20388;-64
2024/01/10 03:32:05;;;;;;;93.00;37.15;;;64.70;2201.60;;;;;;5028372;28;20104;-65
2024/01/10 03:34:31;;;;;;;94.28;38.25;;;64.70;2201.60;;;;;;5030884;28;20387;-68
2024/01/10 03:36:56;;;;;;;90.65;38.05;;;64.70;2201.60;;;;;;5030497;28;20029;-69
2024/01/10 03:39:22;;;;;;;89.85;37.55;;;64.80;2201.60;;;;;;5030695;28;20112;-65
2024/01/10 03:41:48;;;;;;;89.35;36.70;;;64.80;2201.60;;;;;;5012829;28;20049;-64
2024/01/10 03:44:14;;;;;;;86.93;36.92;;;64.80;2201.60;;;;;;5024712;28;20025;-70
2024/01/10 03:46:39;;;;;;;91.55;38.70;;;64.80;2201.60;;;;;;5030734;28;20117;-62
2024/01/10 03:49:05;;;;;;;91.13;38.15;;;64.80;2201.60;;;;;;5027715;28;20028;-65
2024/01/10 03:51:31;;;;;;;90.68;38.05;;;64.80;2201.60;;;;;;5030951;28;20355;-68
2024/01/10 03:53:57;;;;;;;89.85;39.75;;;64.80;2201.60;;;;;;5029250;28;20059;-66
2024/01/10 03:56:22;;;;;;;93.25;42.88;;;64.90;2201.60;;;;;;5029596;28;20048;-70
2024/01/10 03:58:48;;;;;;;86.75;39.38;;;64.90;2201.60;;;;;;5030237;28;20520;-65
2024/01/10 04:01:16;;;;;;;94.75;39.03;;;89.60;2201.60;;;;;;5027869;28;20339;-63
2024/01/10 04:03:42;;;;;;;89.65;39.65;;;89.60;2201.60;;;;;;5030218;28;20053;-65
2024/01/10 04:06:09;;;;;;;89.35;37.40;;;89.60;2201.60;;;;;;5029358;28;20033;-61
2024/01/10 04:08:35;;;;;;;91.25;36.95;;;89.60;2201.60;;;;;;5030121;28;20033;-63
2024/01/10 04:11:03;;;;;;;86.45;37.25;;;89.70;2176.00;;;;;;5030360;28;20527;-61
2024/01/10 04:13:28;;;;;;;86.45;34.88;;;89.70;2176.00;;;;;;5029200;28;20029;-67
2024/01/10 04:15:55;;;;;;;88.53;35.80;;;89.80;2176.00;;;;;;5027133;28;20032;-68
2024/01/10 04:18:21;;;;;;;84.13;34.83;;;89.80;2176.00;;;;;;5028825;28;20039;-66
2024/01/10 04:20:49;;;;;;;84.45;34.58;;;89.80;2176.00;;;;;;5012922;28;20515;-62
2024/01/10 04:23:15;;;;;;;86.28;35.00;;;89.90;2176.00;;;;;;5034056;28;20033;-63
2024/01/10 04:25:41;;;;;;;86.13;33.25;;;89.90;2176.00;;;;;;5034137;28;20045;-67
2024/01/10 04:28:06;;;;;;;92.95;35.60;;;90.00;2176.00;;;;;;5034145;28;20053;-67
2024/01/10 04:30:32;;;;;;;91.03;35.83;;;90.10;2176.00;;;;;;5033890;28;20456;-64
2024/01/10 04:32:58;;;;;;;92.43;38.22;;;90.10;2176.00;;;;;;5030551;28;20439;-61
2024/01/10 04:35:23;;;;;;;95.82;39.28;;;90.20;2176.00;;;;;;5032379;28;20053;-64
2024/01/10 04:37:49;;;;;;;98.72;39.55;;;90.20;2176.00;;;;;;5033553;28;20033;-64
2024/01/10 04:40:18;;;;;;;99.07;40.45;;;90.20;2176.00;;;;;;5033511;28;20045;-62
2024/01/10 04:42:46;;;;;;;110.47;42.65;;;90.20;2176.00;;;;;;5032589;28;20022;-65
2024/01/10 04:45:11;;;;;;;97.90;40.28;;;90.20;2176.00;;;;;;5033123;28;20029;-63
2024/01/10 04:47:37;;;;;;;97.57;38.80;;;90.20;2176.00;;;;;;5034730;28;20025;-64
2024/01/10 04:50:06;;;;;;;102.03;40.80;;;90.20;2176.00;;;;;;5030935;28;20036;-69
2024/01/10 04:52:32;;;;;;;102.43;40.35;;;90.20;2176.00;;;;;;5033468;28;20476;-66
2024/01/10 04:54:58;;;;;;;115.38;45.00;;;90.30;2176.00;;;;;;5033341;28;20029;-67
2024/01/10 04:57:23;;;;;;;122.05;47.25;;;90.20;2176.00;;;;;;5033120;28;20084;-67
2024/01/10 04:59:50;;;;;;;109.95;42.97;;;90.30;2176.00;;;;;;5032467;28;20127;-69
2024/01/10 05:02:15;;;;;;;97.72;38.28;;;90.30;2176.00;;;;;;5032518;28;20025;-71
2024/01/10 05:04:41;;;;;;;96.72;37.83;;;90.40;2176.00;;;;;;5032635;28;20029;-68
2024/01/10 05:07:07;;;;;;;87.53;36.70;;;90.40;2176.00;;;;;;5029696;28;20423;-63
2024/01/10 05:09:32;;;;;;;92.25;36.88;;;90.40;2176.00;;;;;;5032299;28;20033;-62
2024/01/10 05:12:01;;;;;;;91.97;37.50;;;90.50;2176.00;;;;;;5033957;28;20092;-68
2024/01/10 05:14:27;;;;;;;94.72;38.53;;;90.50;2176.00;;;;;;5033715;28;20166;-68
2024/01/10 05:16:53;;;;;;;101.72;40.28;;;90.50;2176.00;;;;;;5033958;28;20053;-68
2024/01/10 05:19:19;;;;;;;109.72;42.35;;;115.20;2176.00;;;;;;5033209;28;20049;-66
2024/01/10 05:21:45;;;;;;;97.53;37.72;;;90.50;2176.00;;;;;;5034396;28;20029;-67
2024/01/10 05:24:10;;;;;;;87.63;35.28;;;115.20;2176.00;;;;;;5033068;28;20139;-61
2024/01/10 05:26:36;;;;;;;144.30;47.33;;;115.20;2176.00;;;;;;5033927;28;20041;-67
2024/01/10 05:29:05;;;;;;;148.55;51.30;;;115.20;2176.00;;;;;;5033690;28;20037;-71
2024/01/10 05:31:33;;;;;;;141.40;52.28;;;115.30;2176.00;;;;;;5033373;28;20056;-62
2024/01/10 05:33:59;;;;;;;140.38;50.10;;;115.30;2176.00;;;;;;5034585;28;20033;-68
2024/01/10 05:36:25;;;;;;;113.10;46.83;;;115.20;2176.00;;;;;;5033328;28;20037;-66
2024/01/10 05:38:51;;;;;;;102.32;44.67;;;115.30;2176.00;;;;;;5044965;28;20029;-69
2024/01/10 05:41:17;;;;;;;121.93;48.97;;;115.40;2176.00;;;;;;5049238;28;20079;-70
2024/01/10 05:43:43;;;;;;;135.07;52.75;;;115.40;2176.00;;;;;;5041076;28;20065;-66
2024/01/10 05:46:09;;;;;;;127.00;48.58;;;115.30;2176.00;;;;;;5028116;28;20512;-63
2024/01/10 05:48:35;;;;;;;105.00;43.92;;;115.30;2176.00;;;;;;5030333;28;20039;-67
2024/01/10 05:51:01;;;;;;;121.88;50.65;;;115.30;2176.00;;;;;;5029572;28;20048;-69
2024/01/10 05:53:30;;;;;;;117.95;46.88;;;115.30;2176.00;;;;;;5031822;28;20417;-65
2024/01/10 05:55:55;;;;;;;102.35;42.60;;;115.30;2176.00;;;;;;5011031;28;20038;-66
2024/01/10 05:58:24;;;;;;;97.88;39.90;;;115.30;2176.00;;;;;;5033581;28;20029;-68
2024/01/10 06:00:50;;;;;;;87.20;35.60;;;115.30;2176.00;;;;;;5032797;28;20033;-70
2024/01/10 06:03:15;;;;;;;100.55;41.22;;;115.30;2176.00;;;;;;5030632;28;20487;-70
2024/01/10 06:05:41;;;;;;;97.82;39.17;;;115.20;2176.00;;;;;;5024464;28;20041;-67
2024/01/10 06:08:07;;;;;;;95.70;42.05;;;115.30;2176.00;;;;;;5031515;28;20132;-69
2024/01/10 06:10:33;;;;;;;104.28;44.58;;;115.30;2176.00;;;;;;5031291;28;20026;-69
2024/01/10 06:12:58;;;;;;;118.10;48.15;;;115.30;2176.00;;;;;;5026603;28;20088;-67
2024/01/10 06:15:24;;;;;;;98.32;42.15;;;115.30;2176.00;;;;;;5028192;28;20037;-64
2024/01/10 06:17:50;;;;;;;75.72;31.80;;;115.30;2176.00;;;;;;5031428;28;20045;-64
2024/01/10 06:20:16;;;;;;;73.60;32.08;;;115.40;2176.00;;;;;;5030982;28;20052;-68
2024/01/10 06:22:41;;;;;;;74.97;30.55;;;115.40;2176.00;;;;;;5030601;28;20024;-68
2024/01/10 06:25:07;;;;;;;71.20;31.90;;;115.50;2176.00;;;;;;5031385;28;20042;-68
2024/01/10 06:27:33;;;;;;;78.97;31.30;;;115.60;2176.00;;;;;;5030993;28;20057;-69
2024/01/10 06:30:02;;;;;;;70.93;29.80;;;115.70;2176.00;;;;;;5030630;28;20029;-69
2024/01/10 06:32:31;;;;;;;78.50;30.88;;;115.70;2176.00;;;;;;5029599;28;20040;-69
2024/01/10 06:34:57;;;;;;;70.93;28.92;;;115.60;2176.00;;;;;;5030505;28;20477;-66
2024/01/10 06:37:22;;;;;;;70.43;29.08;;;115.50;2176.00;;;;;;5030856;28;20091;-69
2024/01/10 06:39:48;;;;;;;68.25;27.92;;;115.50;2176.00;;;;;;5030356;28;20434;-68
2024/01/10 06:42:14;;;;;;;71.82;28.58;;;115.50;2176.00;;;;;;5030781;28;20033;-69
2024/01/10 06:44:43;;;;;;;65.90;27.45;;;115.40;2176.00;;;;;;5030190;28;20040;-66
2024/01/10 06:47:12;;;;;;;65.20;27.00;;;115.50;2176.00;;;;;;5028793;28;20025;-63
2024/01/10 06:49:38;;;;;;;71.72;27.70;;;115.60;2176.00;;;;;;5027419;28;20066;-64
2024/01/10 06:52:06;;;;;;;70.68;28.67;;;115.60;2176.00;;;;;;5030716;28;20112;-66
2024/01/10 06:54:35;;;;;;;72.10;28.75;;;115.40;2176.00;;;;;;5031073;28;20376;-68
2024/01/10 06:57:01;;;;;;;63.05;25.27;;;115.30;2176.00;;;;;;5026811;28;20041;-64
2024/01/10 06:59:26;;;;;;;64.55;25.80;;;115.30;2176.00;;;;;;5030594;28;20052;-67
2024/01/10 07:01:53;;;;;;;65.22;27.00;;;90.20;2176.00;;;;;;5030142;28;20484;-66
2024/01/10 07:04:22;;;;;;;60.53;25.17;;;64.20;2201.60;;;;;;5029143;28;20054;-67
2024/01/10 07:06:47;;;;;;;57.17;24.35;;;38.40;2201.60;;;;;;5025545;28;20365;-69
2024/01/10 07:09:19;;;;;;;55.45;24.48;;;0.10;2201.60;;;;;;5032639;28;20072;-71
2024/01/10 07:11:48;;;;;;;51.97;23.77;;;26.00;2201.60;;;;;;5033041;28;20113;-67
2024/01/10 07:14:14;;;;;;;53.53;24.90;;;51.50;2227.20;;;;;;5032517;28;20026;-72
2024/01/10 07:16:42;;;;;;;50.85;24.90;;;76.90;2227.20;;;;;;5031197;28;20049;-63
2024/01/10 07:19:14;;;;;;;47.95;22.63;;;77.60;2227.20;;;;;;5030021;28;20030;-63
2024/01/10 07:21:40;;;;;;;50.05;22.13;;;102.40;2227.20;;;;;;5032061;28;20071;-69
2024/01/10 07:24:08;;;;;;;48.90;22.70;;;102.80;2227.20;;;;;;5030220;28;20117;-71
2024/01/10 07:26:36;;;;;;;46.88;22.92;;;128.00;2252.80;;;;;;5026651;28;20045;-69
2024/01/10 07:29:02;;;;;;;47.80;22.90;;;153.60;2252.80;;;;;;5036655;28;20037;-72
2024/01/10 07:31:31;;;;;;;45.85;22.77;;;153.90;2252.80;;;;;;5025987;28;20032;-71
2024/01/10 07:33:58;;;;;;;48.38;24.33;;;179.40;2150.40;;;;;;5028901;28;20551;-66
2024/01/10 07:36:29;;;;;;;55.75;25.38;;;154.40;2048.00;;;;;;5032405;28;20041;-73
2024/01/10 07:38:57;;;;;;;54.33;26.17;;;179.90;1996.80;;;;;;5032707;28;20368;-74
2024/01/10 07:41:23;;;;;;;54.53;26.27;;;205.30;1996.80;;;;;;5030109;28;20037;-73
2024/01/10 07:43:49;;;;;;;55.13;27.98;;;205.70;1945.60;;;;;;5026878;28;20033;-67
2024/01/10 07:46:14;;;;;;;54.53;26.73;;;230.90;1894.40;;;;;;5031591;28;20025;-73
2024/01/10 07:48:40;;;;;;;57.55;27.15;;;205.60;1817.60;;;;;;5018978;28;20133;-72
2024/01/10 07:51:06;;;;;;;54.75;27.38;;;205.30;1843.20;;;;;;5031268;28;20124;-74
2024/01/10 07:53:33;;;;;;;53.70;26.73;;;179.60;1945.60;;;;;;5030416;28;20124;-67
2024/01/10 07:56:02;;;;;;;67.60;37.45;;;179.80;1945.60;;;;;;5032900;28;20065;-65
2024/01/10 07:58:30;;;;;;;57.10;27.30;;;179.70;1920.00;;;;;;5054892;28;20025;-75
2024/01/10 08:00:56;;;;;;;54.88;27.48;;;179.90;1945.60;;;;;;5055511;28;20051;-74
2024/01/10 08:03:22;;;;;;;53.97;26.45;;;180.00;1945.60;;;;;;5029728;28;20029;-69
2024/01/10 08:05:48;;;;;;;58.55;27.83;;;204.90;1945.60;;;;;;5037143;28;20045;-76
2024/01/10 08:08:13;;;;;;;61.10;28.83;;;205.60;1920.00;;;;;;5034851;28;20033;-68
2024/01/10 08:10:40;;;;;;;57.17;27.25;;;230.40;1894.40;;;;;;5033910;28;20026;-80
2024/01/10 08:13:08;;;;;;;54.75;27.60;;;231.10;1792.00;;;;;;5034368;28;20066;-78
2024/01/10 08:15:34;;;;;;;51.83;25.85;;;256.50;1766.40;;;;;;5035414;28;20033;-77
2024/01/10 08:18:02;;;;;;;56.00;25.23;;;230.50;1792.00;;;;;;5034023;28;20083;-71
2024/01/10 08:20:29;;;;;;;48.53;24.70;;;205.40;1817.60;;;;;;5015336;28;20059;-76
2024/01/10 08:22:55;;;;;;;46.30;24.45;;;179.60;1920.00;;;;;;5033630;28;20025;-79
2024/01/10 08:25:22;;;;;;;48.00;23.85;;;179.80;2252.80;;;;;;5034164;28;20113;-69
2024/01/10 08:27:53;;;;;;;45.80;22.05;;;179.20;2048.00;;;;;;5034721;28;20032;-76
2024/01/10 08:30:21;;;;;;;52.38;25.13;;;179.60;1971.20;;;;;;5033626;28;20033;-73
2024/01/10 08:32:47;;;;;;;49.63;23.50;;;179.30;2048.00;;;;;;5033167;28;20021;-65
2024/01/10 08:35:13;;;;;;;47.95;23.73;;;179.40;2048.00;;;;;;5034316;28;20029;-74
2024/01/10 08:37:41;;;;;;;50.47;24.30;;;179.30;2022.40;;;;;;5034683;28;20045;-74
2024/01/10 08:40:11;;;;;;;51.95;25.10;;;154.50;2073.60;;;;;;5033053;28;20098;-70
2024/01/10 08:42:40;;;;;;;83.88;42.63;;;179.50;1996.80;;;;;;5034678;28;20108;-66
2024/01/10 08:45:09;;;;;;;56.80;27.48;;;154.20;2048.00;;;;;;5030312;28;20543;-64
2024/01/10 08:47:35;;;;;;;48.05;23.45;;;153.90;2099.20;;;;;;5034168;28;20036;-75
2024/01/10 08:50:08;;;;;;;70.03;36.38;;;;;;;;;;5016569;28;20030;-65
2024/01/10 08:52:34;;;;;;;47.63;22.77;;;;;;;;;;5031398;28;20052;-69
2024/01/10 08:55:00;;;;;;;53.67;25.42;;;103.00;2227.20;;;;;;5032657;28;20551;-70
2024/01/10 08:57:27;;;;;;;66.25;37.78;;;102.90;2227.20;;;;;;5034140;28;20033;-64
2024/01/10 08:59:53;;;;;;;46.17;22.23;;;102.90;2227.20;;;;;;5033621;28;20088;-71
2024/01/10 09:02:19;;;;;;;45.22;22.65;;;102.40;2227.20;;;;;;5033997;28;20026;-67
2024/01/10 09:04:45;;;;;;;45.10;23.10;;;102.90;2227.20;;;;;;5033490;28;20395;-72
2024/01/10 09:07:11;;;;;;;48.50;23.92;;;102.70;2227.20;;;;;;5032778;28;20037;-66
2024/01/10 09:09:36;;;;;;;51.08;24.83;;;102.50;2227.20;;;;;;5033015;28;20079;-72
2024/01/10 09:12:03;;;;;;;50.72;27.70;;;102.70;2227.20;;;;;;5033970;28;20049;-65
2024/01/10 09:14:29;;;;;;;46.08;23.55;;;102.80;2227.20;;;;;;5034231;28;20476;-73
2024/01/10 09:16:55;;;;;;;42.88;21.73;;;77.70;2227.20;;;;;;5033078;28;20032;-64
2024/01/10 09:19:20;;;;;;;41.90;21.35;;;102.70;2227.20;;;;;;5033398;28;20029;-72
2024/01/10 09:21:46;;;;;;;39.05;19.23;;;102.40;2227.20;;;;;;5033004;28;20452;-65
2024/01/10 09:24:14;;;;;;;42.50;21.02;;;102.60;2227.20;;;;;;5047085;28;20132;-64
2024/01/10 09:26:41;;;;;;;43.67;21.65;;;102.80;2227.20;;;;;;5019381;28;20110;-68
2024/01/10 09:29:07;;;;;;;48.75;24.20;;;128.10;2252.80;;;;;;5047712;28;20033;-64
2024/01/10 09:31:32;;;;;;;63.10;36.15;;;128.30;2252.80;;;;;;5035365;28;20072;-66
2024/01/10 09:33:58;;;;;;;40.03;20.17;;;153.70;2252.80;;;;;;5033525;28;20349;-69
2024/01/10 09:36:24;;;;;;;37.88;18.50;;;154.10;2201.60;;;;;;5044586;28;20817;-64
2024/01/10 09:38:50;;;;;;;42.03;22.25;;;153.70;2176.00;;;;;;5053421;28;20032;-65
2024/01/10 09:41:18;;;;;;;39.70;20.65;;;154.20;2176.00;;;;;;5053489;28;20479;-66
2024/01/10 09:43:44;;;;;;;42.42;22.40;;;128.90;2201.60;;;;;;5054073;28;20078;-65
2024/01/10 09:46:10;;;;;;;86.63;32.55;;;153.60;2201.60;;;;;;5048676;28;20980;-71
2024/01/10 09:48:36;;;;;;;34.97;17.95;;;154.20;2176.00;;;;;;5032547;28;20102;-65
2024/01/10 09:51:02;;;;;;;37.15;19.48;;;154.10;2022.40;;;;;;5033061;28;20069;-69
2024/01/10 09:53:31;;;;;;;30.60;15.50;;;154.00;2022.40;;;;;;5032787;28;20033;-66
2024/01/10 09:56:01;;;;;;;24.77;14.45;;;128.80;2022.40;;;;;;5032295;28;20060;-64
2024/01/10 09:58:27;;;;;;;29.35;14.85;;;128.30;1971.20;;;;;;5033034;28;20026;-69
2024/01/10 10:00:53;;;;;;;30.77;16.45;;;128.60;2022.40;;;;;;5015131;28;20041;-66
2024/01/10 10:03:19;;;;;;;27.88;15.10;;;128.40;2048.00;;;;;;5031849;28;20033;-66
2024/01/10 10:05:45;;;;;;;31.00;16.50;;;128.40;2022.40;;;;;;5030217;28;20026;-71
2024/01/10 10:08:14;;;;;;;25.35;13.07;;;128.90;1996.80;;;;;;5032995;28;20051;-67
2024/01/10 10:10:43;;;;;;;24.42;12.23;;;128.60;1945.60;;;;;;5026392;28;20087;-66
2024/01/10 10:13:23;;;;;;;20.10;11.45;;;103.30;1971.20;;;;;;5035237;28;20033;-66
2024/01/10 10:16:00;;;;;;;24.23;12.15;;;103.10;1971.20;;;;;;5030874;28;20040;-66
2024/01/10 10:18:27;;;;;;;50.10;26.40;;;103.10;1996.80;;;;;;5029524;28;20336;-66
2024/01/10 10:21:09;;;;;;;81.10;42.65;;;128.40;2048.00;;;;;;5031215;28;20040;-66
2024/01/10 10:23:36;;;;;;;32.10;16.70;;;128.60;2048.00;;;;;;5031942;28;20112;-70
2024/01/10 10:26:18;;;;;;;53.47;28.42;;;128.10;2048.00;;;;;;5032306;28;20036;-67
2024/01/10 10:28:44;;;;;;;96.22;43.75;;;128.60;2022.40;;;;;;5029031;28;20067;-67
2024/01/10 10:31:11;;;;;;;43.03;21.58;;;153.60;2022.40;;;;;;5030814;28;20476;-71
2024/01/10 10:33:37;;;;;;;49.60;23.83;;;153.80;1996.80;;;;;;5031879;28;20124;-67
2024/01/10 10:36:04;;;;;;;32.80;17.15;;;154.40;1971.20;;;;;;5031088;28;20025;-68
2024/01/10 10:38:29;;;;;;;27.02;14.95;;;154.50;1920.00;;;;;;5031234;28;20030;-67
2024/01/10 10:40:57;;;;;;;45.28;23.08;;;179.20;1920.00;;;;;;5030291;28;20033;-71
2024/01/10 10:43:23;;;;;;;74.28;36.00;;;179.30;1843.20;;;;;;5030708;28;20439;-66
2024/01/10 10:45:50;;;;;;;37.95;20.13;;;154.40;1817.60;;;;;;5031149;28;20026;-69
2024/01/10 10:48:19;;;;;;;31.48;16.15;;;154.20;1843.20;;;;;;5031406;28;20468;-66
2024/01/10 10:51:03;;;;;;;27.92;14.73;;;179.30;1894.40;;;;;;5031567;28;20268;-67
2024/01/10 10:53:30;;;;;;;105.22;48.47;;;179.60;1843.20;;;;;;5030902;28;20505;-69
2024/01/10 10:55:59;;;;;;;148.55;80.03;;;179.60;1843.20;;;;;;5013763;28;20029;-66
2024/01/10 10:58:24;;;;;;;69.93;31.48;;;179.30;1843.20;;;;;;5027333;28;20037;-67
2024/01/10 11:00:51;;;;;;;26.80;13.82;;;179.20;1817.60;;;;;;5030836;28;20480;-66
2024/01/10 11:03:18;;;;;;;39.00;21.95;;;154.40;1766.40;;;;;;5031466;28;20057;-66
2024/01/10 11:05:45;;;;;;;72.43;39.67;;;179.40;1817.60;;;;;;5042567;28;20072;-67
2024/01/10 11:08:16;;;;;;;107.35;35.05;;;180.10;1817.60;;;;;;5036032;28;20138;-70
2024/01/10 11:10:43;;;;;;;50.10;19.38;;;204.90;1715.20;;;;;;5031982;28;20116;-67
2024/01/10 11:13:47;;;;;;;23.52;12.60;;;205.10;1689.60;;;;;;5031712;28;20028;-67
2024/01/10 11:16:32;;;;;;;20.63;10.27;;;204.80;1664.00;;;;;;5031784;28;20380;-67
2024/01/10 11:19:13;;;;;;;20.67;10.68;;;179.50;1715.20;;;;;;5018536;28;20420;-68
2024/01/10 11:22:10;;;;;;;24.20;13.48;;;205.00;1689.60;;;;;;5008884;28;20500;-68
2024/01/10 11:24:37;;;;;;;22.88;13.23;;;179.80;1638.40;;;;;;5019512;28;20085;-69
2024/01/10 11:27:16;;;;;;;21.83;12.30;;;180.00;1664.00;;;;;;5026885;28;20473;-69
2024/01/10 11:29:45;;;;;;;29.90;16.65;;;179.70;1638.40;;;;;;5029914;28;20040;-66
2024/01/10 11:32:22;;;;;;;19.88;11.40;;;180.00;1612.80;;;;;;5029161;28;20053;-65
2024/01/10 11:34:55;;;;;;;57.50;25.00;;;180.10;1664.00;;;;;;5031785;28;20160;-64
2024/01/10 11:37:20;;;;;;;36.50;18.40;;;205.10;1612.80;;;;;;5029632;28;20026;-66
2024/01/10 11:39:46;;;;;;;58.78;28.83;;;205.40;1536.00;;;;;;5029993;28;20032;-65
2024/01/10 11:42:21;;;;;;;24.17;14.55;;;205.50;1561.60;;;;;;5032764;28;20029;-66
2024/01/10 11:44:51;;;;;;;25.40;13.23;;;179.80;1587.20;;;;;;5036392;28;20017;-65
2024/01/10 11:47:20;;;;;;;24.92;12.43;;;154.30;1664.00;;;;;;5052662;28;20021;-67
2024/01/10 11:50:01;;;;;;;39.08;20.17;;;179.60;1664.00;;;;;;5047131;28;20045;-65
2024/01/10 11:52:36;;;;;;;33.58;16.60;;;179.30;1664.00;;;;;;5019295;28;20040;-69
2024/01/10 11:55:03;;;;;;;27.55;13.65;;;179.20;1689.60;;;;;;5049578;28;20051;-66
2024/01/10 11:57:31;;;;;;;21.30;12.55;;;179.30;1689.60;;;;;;5052670;28;20029;-65
2024/01/10 12:00:00;;;;;;;22.13;12.20;;;154.10;1740.80;;;;;;5034022;28;20041;-66
2024/01/10 12:02:27;;;;;;;55.17;21.75;;;179.30;1766.40;;;;;;5031074;28;20485;-67
2024/01/10 12:04:55;;;;;;;24.02;11.98;;;179.90;1715.20;;;;;;5032234;28;20029;-65